createdAt,value
2023-05-18T18:04:36.494Z,12.60
2023-05-18T18:05:36.072Z,18.30
2023-05-18T18:06:36.746Z,18.29
2023-05-18T18:07:37.785Z,18.29
2023-05-18T18:08:37.746Z,18.29
2023-05-18T18:09:38.198Z,18.28
2023-05-18T18:10:39.094Z,18.27
2023-05-18T18:11:39.671Z,18.26
2023-05-18T18:12:40.179Z,18.24
2023-05-18T18:13:40.961Z,18.23
2023-05-18T18:14:41.512Z,18.21
2023-05-18T18:15:41.613Z,18.18
2023-05-18T18:16:41.823Z,18.16
2023-05-18T18:17:41.916Z,18.14
2023-05-18T18:18:42.013Z,18.13
2023-05-18T18:19:42.852Z,18.10
2023-05-18T18:20:43.772Z,18.08
2023-05-18T18:21:44.556Z,18.06
2023-05-18T18:22:44.793Z,18.03
2023-05-18T18:23:45.807Z,17.99
2023-05-18T18:24:45.936Z,17.96
2023-05-18T18:25:46.440Z,17.93
2023-05-18T18:26:47.040Z,17.89
2023-05-18T18:27:47.970Z,17.85
2023-05-18T18:28:48.910Z,17.81
2023-05-18T18:29:49.356Z,17.77
2023-05-18T18:30:50.397Z,17.73
2023-05-18T18:31:51.250Z,17.70
2023-05-18T18:32:59.141Z,17.66
2023-05-18T18:33:52.725Z,17.63
2023-05-18T18:34:52.965Z,17.59
2023-05-18T18:35:53.904Z,17.54
2023-05-18T18:36:54.631Z,17.50
2023-05-18T18:37:55.409Z,17.45
2023-05-18T18:38:08.537Z,14.50
2023-05-18T18:39:08.310Z,16.72
2023-05-18T18:41:15.418Z,14.16
2023-05-18T18:42:20.046Z,16.51
2023-05-18T18:43:16.599Z,16.50
2023-05-18T18:44:17.515Z,16.50
2023-05-18T18:45:18.487Z,16.49
2023-05-18T18:46:18.788Z,16.48
2023-05-18T18:47:19.614Z,16.46
2023-05-18T18:48:19.631Z,16.44
2023-05-18T18:49:20.291Z,16.42
2023-05-18T18:50:20.840Z,16.40
2023-05-18T18:51:23.123Z,16.38
2023-05-18T18:52:21.895Z,16.36
2023-05-18T18:53:26.649Z,16.33
2023-05-18T18:54:24.616Z,16.30
2023-05-18T18:55:23.369Z,16.27
2023-05-18T18:56:26.524Z,16.24
2023-05-18T18:57:25.266Z,16.21
2023-05-18T18:58:33.354Z,16.18
2023-05-18T18:59:29.089Z,16.15
2023-05-18T19:00:27.332Z,16.11
2023-05-18T19:01:45.596Z,16.08
2023-05-18T19:02:36.110Z,16.04
2023-05-18T19:03:31.753Z,16.00
2023-05-18T19:04:34.824Z,15.95
2023-05-18T19:05:37.507Z,15.90
2023-05-18T19:08:04.328Z,11.62
2023-05-18T19:09:20.939Z,15.07
2023-05-18T19:10:03.940Z,15.06
2023-05-18T19:11:06.292Z,15.06
2023-05-18T19:12:04.198Z,15.05
2023-05-18T19:13:07.353Z,15.05
2023-05-18T19:14:05.109Z,15.03
2023-05-18T19:15:05.988Z,15.01
2023-05-18T19:16:05.997Z,14.99
2023-05-18T19:17:09.042Z,14.97
2023-05-18T19:18:45.335Z,14.95
2023-05-18T19:19:08.467Z,14.93
2023-05-18T19:20:15.427Z,14.90
2023-05-18T19:23:35.902Z,14.87
2023-05-18T19:24:34.323Z,14.84
2023-05-18T19:25:41.606Z,14.81
2023-05-18T19:26:34.686Z,14.77
2023-05-18T19:27:35.502Z,14.74
2023-05-18T19:28:37.986Z,14.71
2023-05-18T19:29:36.717Z,14.68
2023-05-18T19:30:44.179Z,14.65
2023-05-18T19:31:43.172Z,14.61
2023-05-18T19:32:18.064Z,11.24
2023-05-18T19:33:12.008Z,13.99
2023-05-18T19:34:09.935Z,13.99
2023-05-18T19:35:12.798Z,13.98
2023-05-18T19:36:18.265Z,13.97
2023-05-18T19:37:11.414Z,13.96
2023-05-18T19:38:24.780Z,13.93
2023-05-18T19:39:15.552Z,13.91
2023-05-18T19:40:13.864Z,13.88
2023-05-18T19:41:20.898Z,13.86
2023-05-18T19:42:12.653Z,13.83
2023-05-18T19:43:13.251Z,13.81
2023-05-18T19:44:21.010Z,13.78
2023-05-18T19:45:32.151Z,13.75
2023-05-18T19:47:27.619Z,13.72
2023-05-18T19:48:28.499Z,13.69
2023-05-18T19:49:29.455Z,13.66
2023-05-18T19:50:32.654Z,13.64
2023-05-18T19:51:48.782Z,13.60
2023-05-18T19:52:31.316Z,13.56
2023-05-18T19:53:32.228Z,13.53
2023-05-18T19:54:33.144Z,13.49
2023-05-18T19:55:36.947Z,13.46
2023-05-18T19:56:33.283Z,13.43
2023-05-18T19:57:33.796Z,13.39
2023-05-18T19:58:34.635Z,13.35
2023-05-18T19:59:35.545Z,13.32
2023-05-18T20:00:35.827Z,13.28
2023-05-18T20:00:52.028Z,11.08
2023-05-18T20:01:50.243Z,12.79
2023-05-18T20:02:51.128Z,12.78
2023-05-18T20:03:51.657Z,12.76
2023-05-18T20:04:51.733Z,12.74
2023-05-18T20:05:51.900Z,12.73
2023-05-18T20:06:52.047Z,12.70
2023-05-18T20:07:52.255Z,12.68
2023-05-18T20:08:52.534Z,12.66
2023-05-18T20:09:53.537Z,12.64
2023-05-18T20:10:54.290Z,12.62
2023-05-18T20:11:54.830Z,12.61
2023-05-18T20:12:55.610Z,12.60
2023-05-18T20:13:05.398Z,9.39
2023-05-18T20:14:07.383Z,12.38
2023-05-18T20:15:06.731Z,12.37
2023-05-18T20:16:07.706Z,12.37
2023-05-18T20:17:10.696Z,12.36
2023-05-18T20:18:11.614Z,12.35
2023-05-18T20:19:10.359Z,12.33
2023-05-18T20:20:10.870Z,12.32
2023-05-18T20:21:13.410Z,12.31
2023-05-18T20:22:11.401Z,12.31
2023-05-18T20:23:13.106Z,12.30
2023-05-18T20:24:12.857Z,12.30
2023-05-18T20:25:13.807Z,12.29
2023-05-18T20:26:14.282Z,12.28
2023-05-18T20:27:15.249Z,12.27
2023-05-18T20:28:15.742Z,12.26
2023-05-18T20:29:16.057Z,12.25
2023-05-18T20:30:16.080Z,12.24
2023-05-18T20:31:16.093Z,12.23
2023-05-18T20:32:16.992Z,12.22
2023-05-18T20:33:17.215Z,12.21
2023-05-18T20:34:17.414Z,12.21
2023-05-18T20:35:17.813Z,12.19
2023-05-18T20:36:18.444Z,12.18
2023-05-18T20:37:18.539Z,12.17
2023-05-18T20:37:28.712Z,8.97
2023-05-18T20:38:29.112Z,11.93
2023-05-18T20:39:29.223Z,11.93
2023-05-18T20:40:29.790Z,11.94
2023-05-18T20:41:30.167Z,11.94
2023-05-18T20:42:31.953Z,11.93
2023-05-18T20:43:31.858Z,11.92
2023-05-18T20:44:32.204Z,11.91
2023-05-18T20:45:32.500Z,11.90
2023-05-18T20:46:32.749Z,11.88
2023-05-18T20:47:33.176Z,11.87
2023-05-18T20:48:36.684Z,11.86
2023-05-18T20:49:36.100Z,11.85
2023-05-18T20:50:35.317Z,11.84
2023-05-18T20:51:36.028Z,11.84
2023-05-18T20:52:37.344Z,11.83
2023-05-18T20:53:37.105Z,11.82
2023-05-18T20:54:37.548Z,11.81
2023-05-18T20:55:38.290Z,11.80
2023-05-18T20:56:38.288Z,11.79
2023-05-18T20:57:38.583Z,11.78
2023-05-18T20:58:38.881Z,11.78
2023-05-18T20:59:40.563Z,11.77
2023-05-18T21:00:40.318Z,11.76
2023-05-18T21:01:40.153Z,11.75
2023-05-18T21:02:39.937Z,11.74
2023-05-18T21:03:40.687Z,11.73
2023-05-18T21:04:41.355Z,11.73
2023-05-18T21:05:42.146Z,11.71
2023-05-18T21:06:43.025Z,11.70
2023-05-18T21:07:44.056Z,11.68
2023-05-18T21:08:44.218Z,11.67
2023-05-18T21:09:44.546Z,11.65
2023-05-18T21:10:44.889Z,11.64
2023-05-18T21:10:54.823Z,11.49
2023-05-18T21:11:55.651Z,11.48
2023-05-18T21:12:55.679Z,11.48
2023-05-18T21:13:56.588Z,11.48
2023-05-18T21:14:56.839Z,11.48
2023-05-18T21:15:57.477Z,11.47
2023-05-18T21:16:58.252Z,11.47
2023-05-18T21:17:59.074Z,11.47
2023-05-18T21:18:59.333Z,11.47
2023-05-18T21:20:00.529Z,11.46
2023-05-18T21:21:00.117Z,11.45
2023-05-18T21:22:00.835Z,11.44
2023-05-18T21:23:01.424Z,11.44
2023-05-18T21:24:01.996Z,11.44
2023-05-18T21:25:02.499Z,11.43
2023-05-18T21:26:03.061Z,11.43
2023-05-18T21:27:03.858Z,11.43
2023-05-18T21:28:04.536Z,11.43
2023-05-18T21:29:04.759Z,11.43
2023-05-18T21:30:05.648Z,11.43
2023-05-18T21:31:06.447Z,11.43
2023-05-18T21:32:07.565Z,11.43
2023-05-18T21:33:07.841Z,11.43
2023-05-18T21:34:08.619Z,11.42
2023-05-18T21:35:09.263Z,11.42
2023-05-18T21:36:09.251Z,11.42
2023-05-18T21:37:09.665Z,11.41
2023-05-18T21:38:10.398Z,11.41
2023-05-18T21:39:10.780Z,11.41
2023-05-18T21:40:11.135Z,11.41
2023-05-18T21:41:11.515Z,11.41
2023-05-18T21:42:11.950Z,11.40
2023-05-18T21:42:21.685Z,7.90
2023-05-18T21:43:21.905Z,11.39
2023-05-18T21:44:21.919Z,11.39
2023-05-18T21:45:22.482Z,11.39
2023-05-18T21:46:22.528Z,11.39
2023-05-18T21:47:23.819Z,11.38
2023-05-18T21:48:23.413Z,11.37
2023-05-18T21:49:23.454Z,11.36
2023-05-18T21:50:24.257Z,11.35
2023-05-18T21:51:24.326Z,11.34
2023-05-18T21:52:24.372Z,11.33
2023-05-18T21:53:25.109Z,11.32
2023-05-18T21:54:25.843Z,11.31
2023-05-18T21:55:26.310Z,11.30
2023-05-18T21:56:26.884Z,11.29
2023-05-18T21:57:27.323Z,11.28
2023-05-18T21:58:28.181Z,11.27
2023-05-18T21:59:29.790Z,11.25
2023-05-18T22:00:29.197Z,11.23
2023-05-18T22:01:29.860Z,11.22
2023-05-18T22:02:30.213Z,11.20
2023-05-18T22:03:30.962Z,11.19
2023-05-18T22:04:31.148Z,11.18
2023-05-18T22:05:33.082Z,11.17
2023-05-18T22:06:32.125Z,11.16
2023-05-18T22:07:33.701Z,11.15
2023-05-18T22:08:33.248Z,11.14
2023-05-18T22:09:33.378Z,11.13
2023-05-18T22:10:34.268Z,11.12
2023-05-18T22:11:34.986Z,11.11
2023-05-18T22:12:38.645Z,11.10
2023-05-18T22:13:36.459Z,11.09
2023-05-18T22:14:37.332Z,11.07
2023-05-18T22:15:38.023Z,11.06
2023-05-18T22:15:47.178Z,7.56
2023-05-18T22:16:47.960Z,10.88
2023-05-18T22:17:48.943Z,10.87
2023-05-18T22:18:49.039Z,10.88
2023-05-18T22:19:49.119Z,10.88
2023-05-18T22:20:50.071Z,10.88
2023-05-18T22:21:50.166Z,10.88
2023-05-18T22:22:50.941Z,10.88
2023-05-18T22:23:51.858Z,10.88
2023-05-18T22:24:51.907Z,10.87
2023-05-18T22:25:52.001Z,10.87
2023-05-18T22:26:52.819Z,10.86
2023-05-18T22:27:53.042Z,10.86
2023-05-18T22:28:52.929Z,10.85
2023-05-18T22:29:52.981Z,10.85
2023-05-18T22:30:53.088Z,10.85
2023-05-18T22:31:53.173Z,10.85
2023-05-18T22:32:53.255Z,10.84
2023-05-18T22:33:54.264Z,10.83
2023-05-18T22:34:54.838Z,10.82
2023-05-18T22:35:55.749Z,10.81
2023-05-18T22:36:55.837Z,10.80
2023-05-18T22:37:56.449Z,10.79
2023-05-18T22:38:56.447Z,10.78
2023-05-18T22:39:56.453Z,10.76
2023-05-18T22:40:56.908Z,10.74
2023-05-18T22:41:57.670Z,10.73
2023-05-18T22:42:58.157Z,10.71
2023-05-18T22:43:58.739Z,10.70
2023-05-18T22:44:59.562Z,10.68
2023-05-18T22:46:00.223Z,10.67
2023-05-18T22:47:00.828Z,10.66
2023-05-18T22:48:01.444Z,10.65
2023-05-18T22:48:13.057Z,10.50
2023-05-18T22:49:13.766Z,10.50
2023-05-18T22:50:14.234Z,10.49
2023-05-18T22:51:14.607Z,10.49
2023-05-18T22:52:16.441Z,10.48
2023-05-18T22:53:15.883Z,10.47
2023-05-18T22:54:16.180Z,10.47
2023-05-18T22:55:17.735Z,10.46
2023-05-18T22:56:17.505Z,10.46
2023-05-18T22:57:18.065Z,10.45
2023-05-18T22:58:18.593Z,10.44
2023-05-18T22:59:19.174Z,10.44
2023-05-18T23:00:20.123Z,10.43
2023-05-18T23:01:20.802Z,10.43
2023-05-18T23:02:21.346Z,10.42
2023-05-18T23:03:21.635Z,10.42
2023-05-18T23:04:22.252Z,10.42
2023-05-18T23:05:23.229Z,10.42
2023-05-18T23:06:23.724Z,10.41
2023-05-18T23:07:24.075Z,10.41
2023-05-18T23:08:24.574Z,10.40
2023-05-18T23:09:25.072Z,10.39
2023-05-18T23:10:25.621Z,10.38
2023-05-18T23:11:26.018Z,10.37
2023-05-18T23:12:26.871Z,10.37
2023-05-18T23:13:27.277Z,10.37
2023-05-18T23:14:27.948Z,10.36
2023-05-18T23:15:28.573Z,10.35
2023-05-18T23:16:29.212Z,10.35
2023-05-18T23:17:29.777Z,10.36
2023-05-18T23:18:30.225Z,10.37
2023-05-18T23:18:42.950Z,8.03
2023-05-18T23:19:42.909Z,10.51
2023-05-18T23:20:43.153Z,10.51
2023-05-18T23:21:43.759Z,10.51
2023-05-18T23:22:44.493Z,10.51
2023-05-18T23:23:45.370Z,10.51
2023-05-18T23:24:46.573Z,10.51
2023-05-18T23:25:46.334Z,10.50
2023-05-18T23:26:46.756Z,10.51
2023-05-18T23:27:47.070Z,10.51
2023-05-18T23:28:47.710Z,10.51
2023-05-18T23:29:48.391Z,10.52
2023-05-18T23:30:49.025Z,10.52
2023-05-18T23:31:49.027Z,10.53
2023-05-18T23:32:49.353Z,10.54
2023-05-18T23:33:50.054Z,10.54
2023-05-18T23:34:50.825Z,10.55
2023-05-18T23:35:51.496Z,10.55
2023-05-18T23:36:51.563Z,10.56
2023-05-18T23:37:52.366Z,10.56
2023-05-18T23:38:53.154Z,10.57
2023-05-18T23:39:53.762Z,10.58
2023-05-18T23:40:53.890Z,10.58
2023-05-18T23:41:54.664Z,10.57
2023-05-18T23:42:55.635Z,10.57
2023-05-18T23:43:56.286Z,10.57
2023-05-18T23:44:56.250Z,10.57
2023-05-18T23:45:57.142Z,10.57
2023-05-18T23:46:57.829Z,10.57
2023-05-18T23:47:58.735Z,10.57
2023-05-18T23:48:59.887Z,10.58
2023-05-18T23:49:59.828Z,10.59
2023-05-18T23:51:00.466Z,10.59
2023-05-18T23:51:09.183Z,7.89
2023-05-18T23:52:09.660Z,10.75
2023-05-18T23:53:10.120Z,10.75
2023-05-18T23:54:10.624Z,10.75
2023-05-18T23:55:11.230Z,10.76
2023-05-18T23:56:11.990Z,10.75
2023-05-18T23:57:11.968Z,10.75
2023-05-18T23:58:12.620Z,10.74
2023-05-18T23:59:13.530Z,10.73
